sensor_id;sensor_type;location;lat;lon;timestamp;P1;durP1;ratioP1;P2;durP2;ratioP2
8088;SDS011;57635;49.194;12.104;2022-07-21T00:00:14;9.93;;;9.13;;
8088;SDS011;57635;49.194;12.104;2022-07-21T00:02:43;9.63;;;8.77;;
8088;SDS011;57635;49.194;12.104;2022-07-21T00:05:13;10.47;;;8.70;;
8088;SDS011;57635;49.194;12.104;2022-07-21T00:07:41;9.70;;;8.80;;
8088;SDS011;57635;49.194;12.104;2022-07-21T00:10:10;10.17;;;9.17;;
8088;SDS011;57635;49.194;12.104;2022-07-21T00:12:38;10.33;;;9.20;;
8088;SDS011;57635;49.194;12.104;2022-07-21T00:15:07;9.67;;;8.87;;
8088;SDS011;57635;49.194;12.104;2022-07-21T00:17:36;8.20;;;7.50;;
8088;SDS011;57635;49.194;12.104;2022-07-21T00:20:05;11.67;;;8.60;;
8088;SDS011;57635;49.194;12.104;2022-07-21T00:22:35;9.27;;;8.57;;
8088;SDS011;57635;49.194;12.104;2022-07-21T00:25:04;8.80;;;8.10;;
8088;SDS011;57635;49.194;12.104;2022-07-21T00:27:33;9.00;;;8.17;;
8088;SDS011;57635;49.194;12.104;2022-07-21T00:30:01;8.90;;;8.10;;
8088;SDS011;57635;49.194;12.104;2022-07-21T00:32:30;8.13;;;7.40;;
8088;SDS011;57635;49.194;12.104;2022-07-21T00:35:01;8.13;;;7.47;;
8088;SDS011;57635;49.194;12.104;2022-07-21T00:37:31;9.20;;;8.43;;
8088;SDS011;57635;49.194;12.104;2022-07-21T00:40:01;8.80;;;8.10;;
8088;SDS011;57635;49.194;12.104;2022-07-21T00:42:30;9.10;;;8.20;;
8088;SDS011;57635;49.194;12.104;2022-07-21T00:44:59;8.63;;;8.00;;
8088;SDS011;57635;49.194;12.104;2022-07-21T00:47:28;7.07;;;6.27;;
8088;SDS011;57635;49.194;12.104;2022-07-21T00:49:58;8.70;;;7.80;;
8088;SDS011;57635;49.194;12.104;2022-07-21T00:52:27;8.77;;;8.13;;
8088;SDS011;57635;49.194;12.104;2022-07-21T00:54:55;7.63;;;7.13;;
8088;SDS011;57635;49.194;12.104;2022-07-21T00:57:25;8.80;;;8.07;;
8088;SDS011;57635;49.194;12.104;2022-07-21T00:59:53;8.73;;;7.80;;
8088;SDS011;57635;49.194;12.104;2022-07-21T01:02:21;8.47;;;7.77;;
8088;SDS011;57635;49.194;12.104;2022-07-21T01:04:49;9.00;;;8.27;;
8088;SDS011;57635;49.194;12.104;2022-07-21T01:07:18;7.90;;;7.33;;
8088;SDS011;57635;49.194;12.104;2022-07-21T01:09:46;8.20;;;7.50;;
8088;SDS011;57635;49.194;12.104;2022-07-21T01:12:14;8.83;;;8.00;;
8088;SDS011;57635;49.194;12.104;2022-07-21T01:14:44;9.10;;;7.93;;
8088;SDS011;57635;49.194;12.104;2022-07-21T01:17:12;7.97;;;7.27;;
8088;SDS011;57635;49.194;12.104;2022-07-21T01:19:41;8.90;;;7.27;;
8088;SDS011;57635;49.194;12.104;2022-07-21T01:22:11;8.73;;;8.03;;
8088;SDS011;57635;49.194;12.104;2022-07-21T01:24:39;9.43;;;8.20;;
8088;SDS011;57635;49.194;12.104;2022-07-21T01:27:07;8.33;;;7.63;;
8088;SDS011;57635;49.194;12.104;2022-07-21T01:29:35;8.67;;;7.97;;
8088;SDS011;57635;49.194;12.104;2022-07-21T01:32:03;8.03;;;7.43;;
8088;SDS011;57635;49.194;12.104;2022-07-21T01:34:32;7.70;;;7.00;;
8088;SDS011;57635;49.194;12.104;2022-07-21T01:37:00;7.97;;;7.37;;
8088;SDS011;57635;49.194;12.104;2022-07-21T01:39:29;8.07;;;7.27;;
8088;SDS011;57635;49.194;12.104;2022-07-21T01:42:15;7.60;;;7.00;;
8088;SDS011;57635;49.194;12.104;2022-07-21T01:44:43;8.93;;;8.13;;
8088;SDS011;57635;49.194;12.104;2022-07-21T01:47:12;9.30;;;8.20;;
8088;SDS011;57635;49.194;12.104;2022-07-21T01:49:40;8.27;;;7.60;;
8088;SDS011;57635;49.194;12.104;2022-07-21T01:52:08;8.03;;;7.43;;
8088;SDS011;57635;49.194;12.104;2022-07-21T01:54:38;7.80;;;7.17;;
8088;SDS011;57635;49.194;12.104;2022-07-21T01:57:06;8.53;;;7.70;;
8088;SDS011;57635;49.194;12.104;2022-07-21T01:59:34;7.70;;;7.20;;
8088;SDS011;57635;49.194;12.104;2022-07-21T02:02:02;7.63;;;7.10;;
8088;SDS011;57635;49.194;12.104;2022-07-21T02:04:30;7.80;;;6.87;;
8088;SDS011;57635;49.194;12.104;2022-07-21T02:07:01;7.90;;;7.30;;
8088;SDS011;57635;49.194;12.104;2022-07-21T02:09:30;8.10;;;7.50;;
8088;SDS011;57635;49.194;12.104;2022-07-21T02:11:59;7.53;;;7.03;;
8088;SDS011;57635;49.194;12.104;2022-07-21T02:14:27;7.43;;;6.93;;
8088;SDS011;57635;49.194;12.104;2022-07-21T02:16:56;8.33;;;7.63;;
8088;SDS011;57635;49.194;12.104;2022-07-21T02:19:24;7.70;;;7.17;;
8088;SDS011;57635;49.194;12.104;2022-07-21T02:21:53;7.77;;;6.97;;
8088;SDS011;57635;49.194;12.104;2022-07-21T02:24:21;8.87;;;8.03;;
8088;SDS011;57635;49.194;12.104;2022-07-21T02:26:49;8.43;;;7.10;;
8088;SDS011;57635;49.194;12.104;2022-07-21T02:29:19;8.07;;;7.43;;
8088;SDS011;57635;49.194;12.104;2022-07-21T02:31:47;8.00;;;7.30;;
8088;SDS011;57635;49.194;12.104;2022-07-21T02:34:15;8.70;;;7.87;;
8088;SDS011;57635;49.194;12.104;2022-07-21T02:36:43;8.67;;;7.97;;
8088;SDS011;57635;49.194;12.104;2022-07-21T02:39:11;9.50;;;8.90;;
8088;SDS011;57635;49.194;12.104;2022-07-21T02:41:39;7.97;;;7.47;;
8088;SDS011;57635;49.194;12.104;2022-07-21T02:44:07;8.83;;;8.20;;
8088;SDS011;57635;49.194;12.104;2022-07-21T02:46:37;10.17;;;8.23;;
8088;SDS011;57635;49.194;12.104;2022-07-21T02:49:05;9.37;;;8.53;;
8088;SDS011;57635;49.194;12.104;2022-07-21T02:51:33;8.97;;;8.07;;
8088;SDS011;57635;49.194;12.104;2022-07-21T02:54:01;8.63;;;7.97;;
8088;SDS011;57635;49.194;12.104;2022-07-21T02:56:29;8.93;;;8.23;;
8088;SDS011;57635;49.194;12.104;2022-07-21T02:58:57;8.63;;;7.97;;
8088;SDS011;57635;49.194;12.104;2022-07-21T03:01:25;8.43;;;7.83;;
8088;SDS011;57635;49.194;12.104;2022-07-21T03:03:55;8.47;;;7.70;;
8088;SDS011;57635;49.194;12.104;2022-07-21T03:06:23;8.17;;;7.37;;
8088;SDS011;57635;49.194;12.104;2022-07-21T03:08:51;8.37;;;7.77;;
8088;SDS011;57635;49.194;12.104;2022-07-21T03:11:20;8.13;;;7.47;;
8088;SDS011;57635;49.194;12.104;2022-07-21T03:13:48;8.13;;;7.43;;
8088;SDS011;57635;49.194;12.104;2022-07-21T03:16:16;8.30;;;7.60;;
8088;SDS011;57635;49.194;12.104;2022-07-21T03:18:45;8.03;;;7.43;;
8088;SDS011;57635;49.194;12.104;2022-07-21T03:21:14;6.87;;;6.33;;
8088;SDS011;57635;49.194;12.104;2022-07-21T03:23:42;7.87;;;7.20;;
8088;SDS011;57635;49.194;12.104;2022-07-21T03:26:12;8.30;;;7.47;;
8088;SDS011;57635;49.194;12.104;2022-07-21T03:28:40;6.80;;;6.30;;
8088;SDS011;57635;49.194;12.104;2022-07-21T03:31:09;7.33;;;6.83;;
8088;SDS011;57635;49.194;12.104;2022-07-21T03:33:37;8.03;;;7.43;;
8088;SDS011;57635;49.194;12.104;2022-07-21T03:36:06;7.20;;;6.60;;
8088;SDS011;57635;49.194;12.104;2022-07-21T03:38:36;6.27;;;5.83;;
8088;SDS011;57635;49.194;12.104;2022-07-21T03:41:04;7.07;;;6.17;;
8088;SDS011;57635;49.194;12.104;2022-07-21T03:43:38;6.17;;;5.73;;
8088;SDS011;57635;49.194;12.104;2022-07-21T03:46:07;5.97;;;5.47;;
8088;SDS011;57635;49.194;12.104;2022-07-21T03:48:35;5.83;;;5.47;;
8088;SDS011;57635;49.194;12.104;2022-07-21T03:51:03;5.20;;;4.80;;
8088;SDS011;57635;49.194;12.104;2022-07-21T03:53:31;6.27;;;5.77;;
8088;SDS011;57635;49.194;12.104;2022-07-21T03:56:01;5.20;;;4.80;;
8088;SDS011;57635;49.194;12.104;2022-07-21T03:58:29;5.10;;;4.80;;
8088;SDS011;57635;49.194;12.104;2022-07-21T04:00:57;4.97;;;4.67;;
8088;SDS011;57635;49.194;12.104;2022-07-21T04:03:25;5.20;;;4.80;;
8088;SDS011;57635;49.194;12.104;2022-07-21T04:05:54;5.03;;;4.73;;
8088;SDS011;57635;49.194;12.104;2022-07-21T04:08:22;4.97;;;4.63;;
8088;SDS011;57635;49.194;12.104;2022-07-21T04:10:50;4.93;;;4.63;;
8088;SDS011;57635;49.194;12.104;2022-07-21T04:13:19;5.07;;;4.77;;
8088;SDS011;57635;49.194;12.104;2022-07-21T04:15:51;4.90;;;4.60;;
8088;SDS011;57635;49.194;12.104;2022-07-21T04:18:19;4.60;;;4.30;;
8088;SDS011;57635;49.194;12.104;2022-07-21T04:20:47;4.33;;;3.97;;
8088;SDS011;57635;49.194;12.104;2022-07-21T04:23:16;5.07;;;4.77;;
8088;SDS011;57635;49.194;12.104;2022-07-21T04:25:44;4.77;;;4.47;;
8088;SDS011;57635;49.194;12.104;2022-07-21T04:28:12;4.80;;;4.40;;
8088;SDS011;57635;49.194;12.104;2022-07-21T04:30:42;4.53;;;4.23;;
8088;SDS011;57635;49.194;12.104;2022-07-21T04:33:10;4.43;;;4.23;;
8088;SDS011;57635;49.194;12.104;2022-07-21T04:35:38;4.43;;;4.13;;
8088;SDS011;57635;49.194;12.104;2022-07-21T04:38:08;4.43;;;4.20;;
8088;SDS011;57635;49.194;12.104;2022-07-21T04:40:36;4.43;;;4.10;;
8088;SDS011;57635;49.194;12.104;2022-07-21T04:43:04;4.63;;;4.33;;
8088;SDS011;57635;49.194;12.104;2022-07-21T04:45:33;4.93;;;4.60;;
8088;SDS011;57635;49.194;12.104;2022-07-21T04:48:03;4.67;;;4.23;;
8088;SDS011;57635;49.194;12.104;2022-07-21T04:50:31;4.40;;;4.10;;
8088;SDS011;57635;49.194;12.104;2022-07-21T04:53:00;4.93;;;4.63;;
8088;SDS011;57635;49.194;12.104;2022-07-21T04:55:28;5.03;;;4.63;;
8088;SDS011;57635;49.194;12.104;2022-07-21T04:57:56;4.47;;;4.20;;
8088;SDS011;57635;49.194;12.104;2022-07-21T05:00:25;4.67;;;4.30;;
8088;SDS011;57635;49.194;12.104;2022-07-21T05:02:54;3.70;;;3.53;;
8088;SDS011;57635;49.194;12.104;2022-07-21T05:05:24;5.20;;;4.70;;
8088;SDS011;57635;49.194;12.104;2022-07-21T05:07:52;4.40;;;4.17;;
8088;SDS011;57635;49.194;12.104;2022-07-21T05:10:21;4.10;;;3.80;;
8088;SDS011;57635;49.194;12.104;2022-07-21T05:12:49;4.90;;;4.40;;
8088;SDS011;57635;49.194;12.104;2022-07-21T05:15:17;5.10;;;4.40;;
8088;SDS011;57635;49.194;12.104;2022-07-21T05:17:46;4.30;;;4.00;;
8088;SDS011;57635;49.194;12.104;2022-07-21T05:20:14;4.07;;;3.80;;
8088;SDS011;57635;49.194;12.104;2022-07-21T05:22:44;4.53;;;4.33;;
8088;SDS011;57635;49.194;12.104;2022-07-21T05:25:12;4.53;;;4.13;;
8088;SDS011;57635;49.194;12.104;2022-07-21T05:27:40;4.33;;;4.03;;
8088;SDS011;57635;49.194;12.104;2022-07-21T05:30:09;4.63;;;4.30;;
8088;SDS011;57635;49.194;12.104;2022-07-21T05:32:38;4.37;;;4.07;;
8088;SDS011;57635;49.194;12.104;2022-07-21T05:35:12;4.23;;;4.03;;
8088;SDS011;57635;49.194;12.104;2022-07-21T05:37:41;4.20;;;3.90;;
8088;SDS011;57635;49.194;12.104;2022-07-21T05:40:11;4.33;;;4.03;;
8088;SDS011;57635;49.194;12.104;2022-07-21T05:42:39;4.20;;;4.00;;
8088;SDS011;57635;49.194;12.104;2022-07-21T05:45:08;4.80;;;4.40;;
8088;SDS011;57635;49.194;12.104;2022-07-21T05:47:37;5.00;;;4.73;;
8088;SDS011;57635;49.194;12.104;2022-07-21T05:50:06;5.03;;;4.73;;
8088;SDS011;57635;49.194;12.104;2022-07-21T05:52:35;5.80;;;5.30;;
8088;SDS011;57635;49.194;12.104;2022-07-21T05:55:03;5.13;;;4.73;;
8088;SDS011;57635;49.194;12.104;2022-07-21T05:57:34;6.53;;;4.60;;
8088;SDS011;57635;49.194;12.104;2022-07-21T06:00:09;5.90;;;5.50;;
8088;SDS011;57635;49.194;12.104;2022-07-21T06:02:38;5.80;;;4.90;;
8088;SDS011;57635;49.194;12.104;2022-07-21T06:05:06;5.60;;;5.03;;
8088;SDS011;57635;49.194;12.104;2022-07-21T06:07:37;5.33;;;4.93;;
8088;SDS011;57635;49.194;12.104;2022-07-21T06:10:06;6.07;;;5.47;;
8088;SDS011;57635;49.194;12.104;2022-07-21T06:12:41;4.77;;;4.57;;
8088;SDS011;57635;49.194;12.104;2022-07-21T06:15:10;5.80;;;5.40;;
8088;SDS011;57635;49.194;12.104;2022-07-21T06:17:39;6.20;;;5.80;;
8088;SDS011;57635;49.194;12.104;2022-07-21T06:20:08;6.37;;;5.87;;
8088;SDS011;57635;49.194;12.104;2022-07-21T06:22:37;6.27;;;5.77;;
8088;SDS011;57635;49.194;12.104;2022-07-21T06:25:05;5.90;;;5.13;;
8088;SDS011;57635;49.194;12.104;2022-07-21T06:27:34;7.13;;;6.53;;
8088;SDS011;57635;49.194;12.104;2022-07-21T06:30:04;6.73;;;6.13;;
8088;SDS011;57635;49.194;12.104;2022-07-21T06:32:33;7.10;;;6.57;;
8088;SDS011;57635;49.194;12.104;2022-07-21T06:35:02;7.57;;;6.73;;
8088;SDS011;57635;49.194;12.104;2022-07-21T06:37:30;7.63;;;7.03;;
8088;SDS011;57635;49.194;12.104;2022-07-21T06:39:59;7.53;;;7.03;;
8088;SDS011;57635;49.194;12.104;2022-07-21T06:42:27;8.03;;;7.33;;
8088;SDS011;57635;49.194;12.104;2022-07-21T06:44:55;7.67;;;6.97;;
8088;SDS011;57635;49.194;12.104;2022-07-21T06:47:25;8.47;;;7.87;;
8088;SDS011;57635;49.194;12.104;2022-07-21T06:49:53;8.03;;;7.43;;
8088;SDS011;57635;49.194;12.104;2022-07-21T06:52:29;9.67;;;8.00;;
8088;SDS011;57635;49.194;12.104;2022-07-21T06:54:58;8.10;;;7.30;;
8088;SDS011;57635;49.194;12.104;2022-07-21T06:57:26;8.03;;;7.33;;
8088;SDS011;57635;49.194;12.104;2022-07-21T06:59:54;7.90;;;7.23;;
8088;SDS011;57635;49.194;12.104;2022-07-21T07:02:23;8.27;;;7.50;;
8088;SDS011;57635;49.194;12.104;2022-07-21T07:04:52;7.73;;;7.13;;
8088;SDS011;57635;49.194;12.104;2022-07-21T07:07:20;6.83;;;6.33;;
8088;SDS011;57635;49.194;12.104;2022-07-21T07:09:48;7.70;;;7.10;;
8088;SDS011;57635;49.194;12.104;2022-07-21T07:12:17;7.60;;;7.00;;
8088;SDS011;57635;49.194;12.104;2022-07-21T07:15:05;7.93;;;7.33;;
8088;SDS011;57635;49.194;12.104;2022-07-21T07:17:34;8.10;;;7.33;;
8088;SDS011;57635;49.194;12.104;2022-07-21T07:20:04;7.43;;;6.77;;
8088;SDS011;57635;49.194;12.104;2022-07-21T07:22:34;7.80;;;7.20;;
8088;SDS011;57635;49.194;12.104;2022-07-21T07:25:02;7.90;;;7.20;;
8088;SDS011;57635;49.194;12.104;2022-07-21T07:27:31;7.53;;;6.93;;
8088;SDS011;57635;49.194;12.104;2022-07-21T07:30:00;8.07;;;7.47;;
8088;SDS011;57635;49.194;12.104;2022-07-21T07:32:35;7.47;;;6.97;;
8088;SDS011;57635;49.194;12.104;2022-07-21T07:35:05;7.57;;;6.97;;
8088;SDS011;57635;49.194;12.104;2022-07-21T07:37:34;8.53;;;7.73;;
8088;SDS011;57635;49.194;12.104;2022-07-21T07:40:03;7.30;;;6.80;;
8088;SDS011;57635;49.194;12.104;2022-07-21T07:42:32;7.70;;;7.10;;
8088;SDS011;57635;49.194;12.104;2022-07-21T07:45:00;7.13;;;6.53;;
8088;SDS011;57635;49.194;12.104;2022-07-21T07:47:29;8.50;;;7.80;;
8088;SDS011;57635;49.194;12.104;2022-07-21T07:49:57;7.40;;;6.90;;
8088;SDS011;57635;49.194;12.104;2022-07-21T07:52:27;8.13;;;7.43;;
8088;SDS011;57635;49.194;12.104;2022-07-21T07:54:55;7.90;;;7.30;;
8088;SDS011;57635;49.194;12.104;2022-07-21T07:57:32;8.33;;;7.73;;
8088;SDS011;57635;49.194;12.104;2022-07-21T08:00:01;8.33;;;7.73;;
8088;SDS011;57635;49.194;12.104;2022-07-21T08:02:41;8.87;;;8.17;;
8088;SDS011;57635;49.194;12.104;2022-07-21T08:05:09;7.97;;;7.33;;
8088;SDS011;57635;49.194;12.104;2022-07-21T08:07:39;8.97;;;8.30;;
8088;SDS011;57635;49.194;12.104;2022-07-21T08:10:08;9.50;;;8.70;;
8088;SDS011;57635;49.194;12.104;2022-07-21T08:12:58;8.63;;;7.93;;
8088;SDS011;57635;49.194;12.104;2022-07-21T08:15:32;9.93;;;9.10;;
8088;SDS011;57635;49.194;12.104;2022-07-21T08:18:00;9.80;;;8.93;;
8088;SDS011;57635;49.194;12.104;2022-07-21T08:20:29;10.00;;;9.13;;
8088;SDS011;57635;49.194;12.104;2022-07-21T08:22:58;10.47;;;9.40;;
8088;SDS011;57635;49.194;12.104;2022-07-21T08:25:26;9.93;;;9.27;;
8088;SDS011;57635;49.194;12.104;2022-07-21T08:27:55;10.47;;;9.77;;
8088;SDS011;57635;49.194;12.104;2022-07-21T08:30:23;10.37;;;9.67;;
8088;SDS011;57635;49.194;12.104;2022-07-21T08:32:56;11.10;;;10.27;;
8088;SDS011;57635;49.194;12.104;2022-07-21T08:35:25;11.13;;;10.33;;
8088;SDS011;57635;49.194;12.104;2022-07-21T08:37:53;11.13;;;10.23;;
8088;SDS011;57635;49.194;12.104;2022-07-21T08:40:24;11.33;;;10.47;;
8088;SDS011;57635;49.194;12.104;2022-07-21T08:42:53;11.97;;;10.97;;
8088;SDS011;57635;49.194;12.104;2022-07-21T08:45:21;12.60;;;11.37;;
8088;SDS011;57635;49.194;12.104;2022-07-21T08:47:51;13.13;;;11.80;;
8088;SDS011;57635;49.194;12.104;2022-07-21T08:50:20;12.80;;;11.77;;
8088;SDS011;57635;49.194;12.104;2022-07-21T08:52:50;11.80;;;10.90;;
8088;SDS011;57635;49.194;12.104;2022-07-21T08:55:29;12.87;;;11.67;;
8088;SDS011;57635;49.194;12.104;2022-07-21T08:57:58;12.37;;;11.47;;
8088;SDS011;57635;49.194;12.104;2022-07-21T09:00:32;12.07;;;11.17;;
8088;SDS011;57635;49.194;12.104;2022-07-21T09:03:08;11.97;;;10.97;;
8088;SDS011;57635;49.194;12.104;2022-07-21T09:05:37;11.23;;;10.40;;
8088;SDS011;57635;49.194;12.104;2022-07-21T09:08:05;11.50;;;10.70;;
8088;SDS011;57635;49.194;12.104;2022-07-21T09:10:36;12.77;;;11.47;;
8088;SDS011;57635;49.194;12.104;2022-07-21T09:13:05;13.00;;;11.93;;
8088;SDS011;57635;49.194;12.104;2022-07-21T09:15:34;11.47;;;10.57;;
8088;SDS011;57635;49.194;12.104;2022-07-21T09:18:09;12.07;;;11.07;;
8088;SDS011;57635;49.194;12.104;2022-07-21T09:20:48;12.10;;;11.20;;
8088;SDS011;57635;49.194;12.104;2022-07-21T09:23:18;12.27;;;11.23;;
8088;SDS011;57635;49.194;12.104;2022-07-21T09:25:49;12.70;;;11.57;;
8088;SDS011;57635;49.194;12.104;2022-07-21T09:28:19;12.30;;;11.07;;
8088;SDS011;57635;49.194;12.104;2022-07-21T09:30:49;12.17;;;11.23;;
8088;SDS011;57635;49.194;12.104;2022-07-21T09:33:19;11.63;;;10.67;;
8088;SDS011;57635;49.194;12.104;2022-07-21T09:35:56;12.57;;;11.43;;
8088;SDS011;57635;49.194;12.104;2022-07-21T09:38:26;11.50;;;10.53;;
8088;SDS011;57635;49.194;12.104;2022-07-21T09:40:57;12.47;;;11.47;;
8088;SDS011;57635;49.194;12.104;2022-07-21T09:43:33;12.83;;;11.83;;
8088;SDS011;57635;49.194;12.104;2022-07-21T09:46:10;13.20;;;11.80;;
8088;SDS011;57635;49.194;12.104;2022-07-21T09:48:43;12.57;;;11.63;;
8088;SDS011;57635;49.194;12.104;2022-07-21T09:51:33;12.23;;;11.23;;
8088;SDS011;57635;49.194;12.104;2022-07-21T09:54:05;12.90;;;11.90;;
8088;SDS011;57635;49.194;12.104;2022-07-21T09:56:36;13.03;;;11.97;;
8088;SDS011;57635;49.194;12.104;2022-07-21T09:59:05;12.87;;;11.97;;
8088;SDS011;57635;49.194;12.104;2022-07-21T10:01:34;12.67;;;11.57;;
8088;SDS011;57635;49.194;12.104;2022-07-21T10:04:04;12.07;;;11.07;;
8088;SDS011;57635;49.194;12.104;2022-07-21T10:06:33;12.73;;;11.83;;
8088;SDS011;57635;49.194;12.104;2022-07-21T10:09:05;13.10;;;12.10;;
8088;SDS011;57635;49.194;12.104;2022-07-21T10:11:39;12.03;;;11.17;;
8088;SDS011;57635;49.194;12.104;2022-07-21T10:14:08;12.83;;;11.83;;
8088;SDS011;57635;49.194;12.104;2022-07-21T10:16:38;13.77;;;12.67;;
8088;SDS011;57635;49.194;12.104;2022-07-21T10:19:18;13.23;;;12.23;;
8088;SDS011;57635;49.194;12.104;2022-07-21T10:21:51;13.50;;;12.40;;
8088;SDS011;57635;49.194;12.104;2022-07-21T10:24:25;13.43;;;12.50;;
8088;SDS011;57635;49.194;12.104;2022-07-21T10:27:00;13.10;;;12.10;;
8088;SDS011;57635;49.194;12.104;2022-07-21T10:29:49;13.20;;;12.20;;
8088;SDS011;57635;49.194;12.104;2022-07-21T10:32:29;12.10;;;11.20;;
8088;SDS011;57635;49.194;12.104;2022-07-21T10:34:59;13.87;;;12.77;;
8088;SDS011;57635;49.194;12.104;2022-07-21T10:37:44;14.47;;;13.37;;
8088;SDS011;57635;49.194;12.104;2022-07-21T10:40:34;14.17;;;13.17;;
8088;SDS011;57635;49.194;12.104;2022-07-21T10:49:06;13.70;;;12.80;;
8088;SDS011;57635;49.194;12.104;2022-07-21T10:51:36;14.13;;;13.03;;
8088;SDS011;57635;49.194;12.104;2022-07-21T10:54:21;15.37;;;14.27;;
8088;SDS011;57635;49.194;12.104;2022-07-21T11:02:55;15.37;;;14.17;;
8088;SDS011;57635;49.194;12.104;2022-07-21T11:05:25;15.07;;;14.03;;
8088;SDS011;57635;49.194;12.104;2022-07-21T11:08:10;16.40;;;15.10;;
8088;SDS011;57635;49.194;12.104;2022-07-21T11:10:44;16.07;;;14.87;;
8088;SDS011;57635;49.194;12.104;2022-07-21T11:13:14;17.07;;;15.70;;
8088;SDS011;57635;49.194;12.104;2022-07-21T11:15:48;16.57;;;15.17;;
8088;SDS011;57635;49.194;12.104;2022-07-21T11:18:23;16.43;;;15.17;;
8088;SDS011;57635;49.194;12.104;2022-07-21T11:21:02;16.10;;;14.87;;
8088;SDS011;57635;49.194;12.104;2022-07-21T11:23:34;17.27;;;15.83;;
8088;SDS011;57635;49.194;12.104;2022-07-21T11:26:06;16.43;;;15.23;;
8088;SDS011;57635;49.194;12.104;2022-07-21T11:28:35;16.93;;;15.53;;
8088;SDS011;57635;49.194;12.104;2022-07-21T11:31:08;16.57;;;15.27;;
8088;SDS011;57635;49.194;12.104;2022-07-21T11:33:39;16.03;;;14.73;;
8088;SDS011;57635;49.194;12.104;2022-07-21T11:36:09;19.50;;;17.70;;
8088;SDS011;57635;49.194;12.104;2022-07-21T11:41:31;17.80;;;16.40;;
8088;SDS011;57635;49.194;12.104;2022-07-21T11:43:59;15.30;;;14.07;;
8088;SDS011;57635;49.194;12.104;2022-07-21T11:46:29;16.67;;;15.20;;
8088;SDS011;57635;49.194;12.104;2022-07-21T11:49:12;15.90;;;14.57;;
8088;SDS011;57635;49.194;12.104;2022-07-21T11:51:45;16.30;;;15.10;;
8088;SDS011;57635;49.194;12.104;2022-07-21T11:54:21;15.80;;;14.60;;
8088;SDS011;57635;49.194;12.104;2022-07-21T11:56:50;17.00;;;15.73;;
8088;SDS011;57635;49.194;12.104;2022-07-21T11:59:19;17.73;;;16.33;;
8088;SDS011;57635;49.194;12.104;2022-07-21T12:01:50;17.27;;;15.87;;
8088;SDS011;57635;49.194;12.104;2022-07-21T12:04:27;17.07;;;15.77;;
8088;SDS011;57635;49.194;12.104;2022-07-21T12:06:56;17.40;;;16.10;;
8088;SDS011;57635;49.194;12.104;2022-07-21T12:09:25;17.07;;;15.87;;
8088;SDS011;57635;49.194;12.104;2022-07-21T12:11:53;18.23;;;16.83;;
8088;SDS011;57635;49.194;12.104;2022-07-21T12:17:33;17.73;;;16.03;;
8088;SDS011;57635;49.194;12.104;2022-07-21T12:20:03;16.13;;;14.97;;
8088;SDS011;57635;49.194;12.104;2022-07-21T12:22:33;16.67;;;15.20;;
8088;SDS011;57635;49.194;12.104;2022-07-21T12:25:02;17.47;;;16.17;;
8088;SDS011;57635;49.194;12.104;2022-07-21T12:27:33;17.17;;;15.87;;
8088;SDS011;57635;49.194;12.104;2022-07-21T12:30:03;17.17;;;15.87;;
8088;SDS011;57635;49.194;12.104;2022-07-21T12:32:47;16.27;;;14.97;;
8088;SDS011;57635;49.194;12.104;2022-07-21T12:35:20;16.00;;;14.80;;
8088;SDS011;57635;49.194;12.104;2022-07-21T12:38:02;16.13;;;14.93;;
8088;SDS011;57635;49.194;12.104;2022-07-21T12:40:32;16.33;;;14.93;;
8088;SDS011;57635;49.194;12.104;2022-07-21T12:43:06;17.77;;;16.37;;
8088;SDS011;57635;49.194;12.104;2022-07-21T12:45:50;16.93;;;15.73;;
8088;SDS011;57635;49.194;12.104;2022-07-21T12:48:22;15.23;;;14.07;;
8088;SDS011;57635;49.194;12.104;2022-07-21T12:50:59;16.10;;;15.00;;
8088;SDS011;57635;49.194;12.104;2022-07-21T12:53:29;15.03;;;14.00;;
8088;SDS011;57635;49.194;12.104;2022-07-21T12:55:58;15.40;;;14.30;;
8088;SDS011;57635;49.194;12.104;2022-07-21T12:58:27;16.20;;;15.00;;
8088;SDS011;57635;49.194;12.104;2022-07-21T13:00:55;16.17;;;14.70;;
8088;SDS011;57635;49.194;12.104;2022-07-21T13:03:26;16.40;;;15.20;;
8088;SDS011;57635;49.194;12.104;2022-07-21T13:05:57;16.30;;;15.00;;
8088;SDS011;57635;49.194;12.104;2022-07-21T13:08:25;14.53;;;13.43;;
8088;SDS011;57635;49.194;12.104;2022-07-21T13:10:54;13.37;;;12.37;;
8088;SDS011;57635;49.194;12.104;2022-07-21T13:13:22;13.77;;;12.77;;
8088;SDS011;57635;49.194;12.104;2022-07-21T13:15:51;14.30;;;13.27;;
8088;SDS011;57635;49.194;12.104;2022-07-21T13:18:19;13.03;;;12.13;;
8088;SDS011;57635;49.194;12.104;2022-07-21T13:20:49;13.70;;;12.70;;
8088;SDS011;57635;49.194;12.104;2022-07-21T13:23:17;13.47;;;12.57;;
8088;SDS011;57635;49.194;12.104;2022-07-21T13:25:46;11.77;;;10.90;;
8088;SDS011;57635;49.194;12.104;2022-07-21T13:28:29;13.63;;;12.47;;
8088;SDS011;57635;49.194;12.104;2022-07-21T13:30:57;12.63;;;11.63;;
8088;SDS011;57635;49.194;12.104;2022-07-21T13:33:26;12.83;;;11.93;;
8088;SDS011;57635;49.194;12.104;2022-07-21T13:35:55;12.27;;;11.37;;
8088;SDS011;57635;49.194;12.104;2022-07-21T13:38:23;13.33;;;12.33;;
8088;SDS011;57635;49.194;12.104;2022-07-21T13:40:52;12.73;;;11.80;;
8088;SDS011;57635;49.194;12.104;2022-07-21T13:43:40;13.37;;;12.23;;
8088;SDS011;57635;49.194;12.104;2022-07-21T13:46:09;12.23;;;11.43;;
8088;SDS011;57635;49.194;12.104;2022-07-21T13:48:37;13.73;;;12.60;;
8088;SDS011;57635;49.194;12.104;2022-07-21T13:51:12;15.13;;;14.03;;
8088;SDS011;57635;49.194;12.104;2022-07-21T13:53:41;14.00;;;12.93;;
8088;SDS011;57635;49.194;12.104;2022-07-21T13:56:10;12.53;;;11.57;;
8088;SDS011;57635;49.194;12.104;2022-07-21T13:58:39;12.13;;;11.33;;
8088;SDS011;57635;49.194;12.104;2022-07-21T14:01:07;13.23;;;12.33;;
8088;SDS011;57635;49.194;12.104;2022-07-21T14:03:36;12.53;;;11.53;;
8088;SDS011;57635;49.194;12.104;2022-07-21T14:06:05;13.27;;;12.17;;
8088;SDS011;57635;49.194;12.104;2022-07-21T14:08:35;12.67;;;11.67;;
8088;SDS011;57635;49.194;12.104;2022-07-21T14:11:05;12.97;;;11.87;;
8088;SDS011;57635;49.194;12.104;2022-07-21T14:13:33;12.40;;;11.47;;
8088;SDS011;57635;49.194;12.104;2022-07-21T14:16:02;12.77;;;11.67;;
8088;SDS011;57635;49.194;12.104;2022-07-21T14:18:31;11.50;;;10.70;;
8088;SDS011;57635;49.194;12.104;2022-07-21T14:20:59;11.43;;;10.57;;
8088;SDS011;57635;49.194;12.104;2022-07-21T14:23:29;10.70;;;9.90;;
8088;SDS011;57635;49.194;12.104;2022-07-21T14:25:59;11.17;;;10.37;;
8088;SDS011;57635;49.194;12.104;2022-07-21T14:28:29;11.50;;;10.73;;
8088;SDS011;57635;49.194;12.104;2022-07-21T14:30:57;10.90;;;9.97;;
8088;SDS011;57635;49.194;12.104;2022-07-21T14:33:26;10.13;;;9.47;;
8088;SDS011;57635;49.194;12.104;2022-07-21T14:35:56;10.67;;;9.97;;
8088;SDS011;57635;49.194;12.104;2022-07-21T14:38:24;10.52;;;9.63;;
8088;SDS011;57635;49.194;12.104;2022-07-21T14:40:53;10.77;;;9.88;;
8088;SDS011;57635;49.194;12.104;2022-07-21T14:43:22;9.63;;;8.93;;
8088;SDS011;57635;49.194;12.104;2022-07-21T14:45:50;9.95;;;9.30;;
8088;SDS011;57635;49.194;12.104;2022-07-21T14:48:19;9.32;;;8.73;;
8088;SDS011;57635;49.194;12.104;2022-07-21T14:50:49;10.80;;;9.95;;
8088;SDS011;57635;49.194;12.104;2022-07-21T15:15:23;9.18;;;8.68;;
8088;SDS011;57635;49.194;12.104;2022-07-21T15:17:52;8.68;;;8.18;;
8088;SDS011;57635;49.194;12.104;2022-07-21T15:20:20;10.27;;;9.50;;
8088;SDS011;57635;49.194;12.104;2022-07-21T15:22:48;9.73;;;9.23;;
8088;SDS011;57635;49.194;12.104;2022-07-21T15:25:16;10.18;;;8.95;;
8088;SDS011;57635;49.194;12.104;2022-07-21T15:27:52;9.90;;;9.15;;
8088;SDS011;57635;49.194;12.104;2022-07-21T15:30:20;9.68;;;9.00;;
8088;SDS011;57635;49.194;12.104;2022-07-21T15:32:50;9.93;;;9.23;;
8088;SDS011;57635;49.194;12.104;2022-07-21T15:35:18;9.45;;;8.75;;